createdAt,value
2019-05-07T00:01:02.706Z,11.23
2019-05-07T00:03:09.275Z,12.97
2019-05-07T00:05:16.148Z,12.13
2019-05-07T00:07:23.637Z,11.00
2019-05-07T00:09:32.146Z,11.83
2019-05-07T00:11:38.014Z,8.50
2019-05-07T00:13:44.631Z,8.83
2019-05-07T00:15:52.826Z,13.47
2019-05-07T00:17:59.131Z,11.23
2019-05-07T00:20:09.282Z,14.40
2019-05-07T00:22:15.647Z,12.20
2019-05-07T00:24:23.455Z,12.57
2019-05-07T00:26:32.058Z,12.17
2019-05-07T00:28:39.534Z,13.57
2019-05-07T00:30:45.918Z,13.10
2019-05-07T00:32:53.720Z,12.53
2019-05-07T00:35:04.679Z,10.90
2019-05-07T00:37:18.927Z,6.97
2019-05-07T00:39:42.499Z,9.73
2019-05-07T00:41:57.964Z,9.97
2019-05-07T00:44:06.294Z,10.77
2019-05-07T00:46:14.180Z,9.70
2019-05-07T00:48:23.469Z,11.70
2019-05-07T00:50:34.662Z,12.77
2019-05-07T00:52:43.007Z,8.30
2019-05-07T00:54:50.470Z,8.87
2019-05-07T00:56:56.927Z,8.67
2019-05-07T00:59:03.412Z,11.07
2019-05-07T01:01:10.281Z,10.13
2019-05-07T01:03:16.741Z,10.70
2019-05-07T01:05:23.258Z,14.43
2019-05-07T01:07:29.780Z,10.43
2019-05-07T01:09:36.131Z,12.13
2019-05-07T01:11:43.010Z,8.57
2019-05-07T01:13:49.368Z,6.97
2019-05-07T01:15:57.384Z,15.70
2019-05-07T01:18:03.734Z,10.70
2019-05-07T01:20:12.428Z,9.67
2019-05-07T01:22:18.629Z,10.20
2019-05-07T01:24:24.869Z,8.30
2019-05-07T01:26:33.101Z,10.03
2019-05-07T01:28:58.083Z,12.43
2019-05-07T01:31:04.758Z,9.17
2019-05-07T01:33:12.752Z,9.93
2019-05-07T01:35:23.519Z,9.17
2019-05-07T01:37:32.052Z,9.37
2019-05-07T01:39:38.081Z,10.53
2019-05-07T01:41:45.985Z,7.50
2019-05-07T01:43:52.661Z,8.03
2019-05-07T01:45:59.029Z,9.10
2019-05-07T01:48:05.882Z,8.90
2019-05-07T01:50:13.354Z,10.70
2019-05-07T01:52:19.728Z,13.97
2019-05-07T01:54:26.218Z,9.43
2019-05-07T01:56:33.153Z,10.63
2019-05-07T01:58:42.337Z,9.67
2019-05-07T02:00:48.058Z,10.33
2019-05-07T02:02:58.924Z,11.50
2019-05-07T02:05:26.295Z,10.03
2019-05-07T02:07:34.387Z,9.30
2019-05-07T02:09:48.735Z,15.10
2019-05-07T02:12:02.441Z,14.53
2019-05-07T02:14:08.538Z,10.63
2019-05-07T02:16:14.890Z,10.37
2019-05-07T02:18:21.821Z,13.13
2019-05-07T02:20:28.232Z,10.97
2019-05-07T02:22:34.603Z,11.40
2019-05-07T02:24:43.374Z,12.97
2019-05-07T02:26:52.021Z,12.63
2019-05-07T02:28:57.906Z,12.73
2019-05-07T02:31:05.177Z,10.13
2019-05-07T02:33:13.760Z,12.50
2019-05-07T02:35:19.950Z,10.83
2019-05-07T02:37:35.769Z,14.33
2019-05-07T02:39:40.441Z,9.77
2019-05-07T02:41:54.239Z,11.63
2019-05-07T02:44:03.184Z,12.37
2019-05-07T02:46:22.521Z,14.53
2019-05-07T02:48:23.663Z,8.80
2019-05-07T02:50:33.008Z,9.37
2019-05-07T02:52:58.755Z,12.47
2019-05-07T02:55:13.158Z,11.80
2019-05-07T02:57:24.079Z,16.13
2019-05-07T02:59:33.528Z,14.63
2019-05-07T03:01:42.998Z,11.07
2019-05-07T03:03:52.650Z,12.20
2019-05-07T03:06:02.893Z,10.57
2019-05-07T03:08:13.244Z,11.50
2019-05-07T03:10:23.746Z,11.53
2019-05-07T03:12:33.476Z,11.50
2019-05-07T03:14:38.938Z,11.30
2019-05-07T03:16:49.366Z,11.77
2019-05-07T03:18:56.900Z,13.90
2019-05-07T03:21:16.997Z,10.73
2019-05-07T03:23:28.486Z,12.43
2019-05-07T03:25:54.157Z,10.80
2019-05-07T03:28:00.440Z,12.80
2019-05-07T03:30:17.329Z,14.40
2019-05-07T03:32:27.328Z,11.00
2019-05-07T03:34:46.543Z,11.00
2019-05-07T03:36:56.541Z,10.40
2019-05-07T03:39:03.302Z,13.50
2019-05-07T03:41:09.305Z,20.10
2019-05-07T03:43:15.812Z,10.03
2019-05-07T03:45:26.669Z,10.87
2019-05-07T03:47:34.883Z,9.70
2019-05-07T03:49:42.977Z,10.80
2019-05-07T03:51:52.881Z,8.57
2019-05-07T03:53:58.257Z,9.57
2019-05-07T03:56:04.944Z,8.00
2019-05-07T03:58:14.564Z,11.17
2019-05-07T04:00:23.932Z,8.60
2019-05-07T04:02:32.891Z,11.57
2019-05-07T04:04:37.766Z,12.13
2019-05-07T04:06:44.717Z,11.43
2019-05-07T04:08:53.146Z,8.63
2019-05-07T04:10:59.182Z,8.53
2019-05-07T04:13:06.070Z,8.47
2019-05-07T04:15:14.140Z,9.17
2019-05-07T04:17:25.613Z,8.37
2019-05-07T04:19:28.934Z,12.73
2019-05-07T04:21:35.335Z,11.27
2019-05-07T04:23:43.639Z,9.30
2019-05-07T04:25:54.698Z,8.17
2019-05-07T04:28:18.648Z,12.17
2019-05-07T04:30:25.621Z,9.30
2019-05-07T04:32:33.619Z,9.83
2019-05-07T04:34:59.062Z,11.43
2019-05-07T04:37:06.899Z,13.40
2019-05-07T04:39:13.541Z,10.17
2019-05-07T04:41:23.012Z,8.40
2019-05-07T04:43:27.893Z,12.00
2019-05-07T04:45:34.426Z,10.53
2019-05-07T04:47:44.313Z,11.10
2019-05-07T04:49:49.417Z,7.30
2019-05-07T04:51:57.336Z,9.03
2019-05-07T04:54:04.175Z,11.10
2019-05-07T04:56:13.847Z,12.00
2019-05-07T04:58:23.322Z,9.87
2019-05-07T05:00:28.907Z,8.87
2019-05-07T05:02:34.975Z,10.40
2019-05-07T05:04:43.656Z,10.63
2019-05-07T05:06:52.854Z,7.57
2019-05-07T05:08:59.109Z,12.37
2019-05-07T05:11:05.530Z,9.73
2019-05-07T05:13:12.888Z,12.17
2019-05-07T05:15:22.178Z,12.37
2019-05-07T05:17:28.916Z,9.83
2019-05-07T05:19:35.174Z,10.73
2019-05-07T05:21:43.196Z,15.47
2019-05-07T05:23:54.449Z,8.97
2019-05-07T05:26:01.953Z,9.20
2019-05-07T05:28:12.378Z,8.73
2019-05-07T05:30:22.013Z,9.07
2019-05-07T05:32:28.596Z,8.30
2019-05-07T05:34:34.993Z,11.83
2019-05-07T05:36:42.514Z,10.47
2019-05-07T05:38:49.248Z,11.07
2019-05-07T05:40:57.453Z,8.10
2019-05-07T05:43:06.937Z,9.30
2019-05-07T05:45:33.352Z,9.03
2019-05-07T05:47:42.824Z,8.90
2019-05-07T05:49:47.676Z,8.33
2019-05-07T05:52:04.093Z,12.63
2019-05-07T05:54:28.265Z,10.60
2019-05-07T05:56:42.702Z,13.17
2019-05-07T05:59:06.804Z,10.03
2019-05-07T06:01:16.432Z,12.80
2019-05-07T06:03:43.058Z,12.77
2019-05-07T06:05:52.259Z,10.73
2019-05-07T06:08:05.929Z,12.90
2019-05-07T06:10:23.577Z,8.70
2019-05-07T06:12:42.852Z,7.80
2019-05-07T06:14:57.062Z,12.37
2019-05-07T06:17:22.376Z,10.47
2019-05-07T06:19:33.366Z,7.67
2019-05-07T06:21:59.289Z,8.53
2019-05-07T06:24:07.166Z,8.40
2019-05-07T06:26:14.756Z,12.47
2019-05-07T06:28:22.342Z,9.83
2019-05-07T06:30:28.911Z,12.23
2019-05-07T06:32:36.616Z,8.13
2019-05-07T06:34:44.727Z,11.27
2019-05-07T06:36:52.668Z,10.10
2019-05-07T06:39:01.935Z,11.57
2019-05-07T06:41:17.436Z,14.30
2019-05-07T06:43:25.636Z,8.67
2019-05-07T06:45:35.424Z,9.70
2019-05-07T06:47:43.149Z,8.00
2019-05-07T06:49:52.321Z,5.90
2019-05-07T06:51:58.877Z,5.70
2019-05-07T06:54:05.328Z,8.50
2019-05-07T06:56:12.205Z,3.83
2019-05-07T06:58:18.570Z,8.10
2019-05-07T07:00:26.988Z,4.93
2019-05-07T07:02:44.387Z,5.63
2019-05-07T07:04:52.304Z,8.27
2019-05-07T07:07:01.925Z,5.07
2019-05-07T07:09:22.092Z,10.50
2019-05-07T07:11:32.342Z,3.27
2019-05-07T07:13:39.117Z,11.33
2019-05-07T07:15:45.511Z,6.13
2019-05-07T07:17:52.393Z,5.97
2019-05-07T07:19:58.947Z,6.63
2019-05-07T07:22:05.328Z,4.97
2019-05-07T07:24:12.701Z,7.13
2019-05-07T07:26:19.163Z,3.10
2019-05-07T07:28:25.528Z,7.10
2019-05-07T07:30:33.546Z,6.43
2019-05-07T07:32:42.769Z,10.97
2019-05-07T07:34:53.085Z,4.27
2019-05-07T07:37:12.842Z,11.37
2019-05-07T07:39:18.990Z,6.20
2019-05-07T07:41:28.351Z,9.57
2019-05-07T07:43:34.665Z,5.37
2019-05-07T07:45:42.016Z,4.63
2019-05-07T07:47:49.409Z,4.63
2019-05-07T07:49:56.018Z,3.27
2019-05-07T07:52:03.282Z,7.53
2019-05-07T07:54:09.752Z,5.43
2019-05-07T07:56:23.706Z,4.63
2019-05-07T07:58:34.161Z,7.03
2019-05-07T08:00:54.286Z,6.37
2019-05-07T08:03:02.486Z,9.50
2019-05-07T08:05:12.575Z,3.73
2019-05-07T08:07:19.183Z,5.27
2019-05-07T08:09:25.959Z,4.90
2019-05-07T08:11:32.592Z,6.50
2019-05-07T08:13:39.024Z,6.63
2019-05-07T08:15:46.663Z,7.33
2019-05-07T08:17:53.253Z,6.30
2019-05-07T08:19:59.765Z,6.10
2019-05-07T08:22:06.730Z,5.57
2019-05-07T08:24:13.370Z,4.97
2019-05-07T08:26:21.886Z,4.60
2019-05-07T08:28:28.643Z,6.37
2019-05-07T08:30:35.522Z,9.50
2019-05-07T08:32:44.051Z,2.67
2019-05-07T08:35:07.582Z,6.77
2019-05-07T08:37:14.633Z,10.20
2019-05-07T08:39:25.110Z,8.20
2019-05-07T08:41:31.958Z,6.53
2019-05-07T08:43:39.303Z,5.20
2019-05-07T08:46:03.831Z,3.23
2019-05-07T08:48:13.403Z,6.37
2019-05-07T08:50:19.864Z,4.93
2019-05-07T08:52:26.610Z,3.60
2019-05-07T08:54:34.663Z,7.40
2019-05-07T08:56:44.411Z,3.40
2019-05-07T08:58:52.630Z,8.17
2019-05-07T09:00:59.622Z,6.17
2019-05-07T09:03:19.123Z,3.30
2019-05-07T09:05:14.642Z,5.03
2019-05-07T09:07:21.982Z,5.00
2019-05-07T09:09:29.572Z,4.10
2019-05-07T09:11:36.162Z,3.93
2019-05-07T09:13:42.867Z,5.83
2019-05-07T09:15:49.314Z,4.03
2019-05-07T09:17:56.274Z,8.67
2019-05-07T09:20:03.528Z,5.23
2019-05-07T09:22:12.523Z,7.50
2019-05-07T09:24:18.332Z,4.27
2019-05-07T09:26:26.479Z,6.43
2019-05-07T09:28:34.882Z,3.73
2019-05-07T09:30:52.495Z,2.30
2019-05-07T09:33:02.475Z,9.00
2019-05-07T09:35:12.480Z,6.37
2019-05-07T09:37:32.763Z,10.93
2019-05-07T09:39:39.342Z,7.17
2019-05-07T09:41:46.263Z,9.10
2019-05-07T09:43:52.783Z,5.57
2019-05-07T09:45:59.262Z,5.63
2019-05-07T09:48:06.482Z,5.07
2019-05-07T09:50:13.826Z,5.60
2019-05-07T09:52:22.682Z,5.60
2019-05-07T09:54:29.122Z,5.03
2019-05-07T09:56:37.102Z,10.77
2019-05-07T09:58:44.081Z,6.10
2019-05-07T10:00:52.303Z,3.10
2019-05-07T10:02:58.888Z,11.43
2019-05-07T10:05:07.082Z,2.67
2019-05-07T10:07:15.482Z,2.67
2019-05-07T10:09:22.360Z,4.47
2019-05-07T10:11:47.329Z,5.20
2019-05-07T10:14:04.268Z,4.87
2019-05-07T10:16:12.767Z,6.17
2019-05-07T10:18:20.118Z,2.23
2019-05-07T10:20:27.965Z,7.37
2019-05-07T10:22:34.334Z,7.77
2019-05-07T10:24:42.904Z,2.23
2019-05-07T10:26:50.093Z,1.37
2019-05-07T10:29:04.326Z,5.00
2019-05-07T10:31:11.041Z,1.83
2019-05-07T10:33:18.062Z,3.70
2019-05-07T10:35:26.194Z,3.10
2019-05-07T10:37:35.323Z,2.10
2019-05-07T10:39:43.041Z,3.27
2019-05-07T10:41:49.850Z,2.23
2019-05-07T10:43:58.089Z,3.87
2019-05-07T10:46:24.384Z,5.97
2019-05-07T10:48:37.203Z,2.87
2019-05-07T10:50:45.882Z,4.03
2019-05-07T10:52:53.182Z,2.87
2019-05-07T10:55:00.034Z,4.10
2019-05-07T10:57:07.603Z,3.33
2019-05-07T10:59:14.008Z,3.00
2019-05-07T11:01:22.470Z,2.47
2019-05-07T11:03:29.272Z,3.33
2019-05-07T11:05:36.139Z,4.40
2019-05-07T11:07:43.070Z,2.70
2019-05-07T11:09:52.492Z,4.47
2019-05-07T11:11:59.262Z,4.13
2019-05-07T11:14:05.961Z,1.80
2019-05-07T11:16:14.162Z,8.50
2019-05-07T11:18:22.242Z,4.17
2019-05-07T11:20:28.722Z,3.00
2019-05-07T11:22:36.687Z,1.93
2019-05-07T11:24:43.150Z,3.07
2019-05-07T11:26:49.562Z,2.40
2019-05-07T11:28:56.082Z,1.97
2019-05-07T11:31:02.504Z,2.83
2019-05-07T11:33:08.778Z,3.43
2019-05-07T11:35:15.484Z,3.20
2019-05-07T11:37:23.547Z,3.30
2019-05-07T11:39:29.911Z,1.23
2019-05-07T11:41:37.842Z,1.97
2019-05-07T11:43:45.402Z,3.53
2019-05-07T11:45:58.838Z,1.20
2019-05-07T11:48:04.598Z,3.97
2019-05-07T11:50:14.376Z,6.30
2019-05-07T11:52:22.747Z,2.17
2019-05-07T11:54:32.022Z,1.80
2019-05-07T11:56:42.250Z,3.63
2019-05-07T11:58:50.725Z,16.10
2019-05-07T12:01:04.903Z,6.03
2019-05-07T12:03:11.372Z,1.37
2019-05-07T12:05:19.403Z,2.70
2019-05-07T12:07:25.805Z,1.93
2019-05-07T12:09:33.321Z,2.40
2019-05-07T12:11:40.003Z,3.27
2019-05-07T12:13:46.682Z,4.30
2019-05-07T12:15:53.342Z,1.33
2019-05-07T12:18:02.773Z,1.97
2019-05-07T12:20:09.022Z,2.40
2019-05-07T12:22:17.222Z,4.67
2019-05-07T12:24:24.042Z,8.97
2019-05-07T12:26:32.122Z,3.33
2019-05-07T12:28:41.880Z,1.97
2019-05-07T12:30:51.629Z,3.17
2019-05-07T12:33:03.718Z,2.97
2019-05-07T12:35:12.708Z,4.57
2019-05-07T12:37:22.426Z,1.90
2019-05-07T12:39:28.522Z,3.97
2019-05-07T12:41:35.071Z,1.37
2019-05-07T12:43:42.340Z,2.30
2019-05-07T12:45:48.827Z,6.47
2019-05-07T12:47:55.578Z,3.00
2019-05-07T12:50:03.151Z,2.83
2019-05-07T12:52:20.242Z,3.13
2019-05-07T12:54:34.720Z,2.33
2019-05-07T12:56:42.517Z,2.47
2019-05-07T12:58:48.804Z,3.10
2019-05-07T13:00:56.615Z,1.40
2019-05-07T13:03:07.963Z,5.13
2019-05-07T13:05:15.662Z,3.20
2019-05-07T13:07:22.030Z,6.53
2019-05-07T13:09:28.481Z,1.77
2019-05-07T13:11:35.337Z,2.80
2019-05-07T13:13:43.322Z,2.70
2019-05-07T13:15:51.812Z,1.97
2019-05-07T13:18:02.814Z,1.03
2019-05-07T13:20:12.058Z,6.20
2019-05-07T13:22:21.952Z,4.57
2019-05-07T13:24:28.841Z,2.10
2019-05-07T13:26:39.621Z,7.40
2019-05-07T13:28:49.123Z,3.77
2019-05-07T13:30:58.102Z,2.90
2019-05-07T13:33:06.445Z,3.20
2019-05-07T13:35:13.801Z,5.50
2019-05-07T13:37:25.009Z,7.20
2019-05-07T13:39:42.992Z,3.50
2019-05-07T13:41:55.882Z,2.53
2019-05-07T13:44:07.222Z,6.23
2019-05-07T13:46:15.530Z,4.13
2019-05-07T13:48:23.705Z,5.07
2019-05-07T13:50:32.536Z,5.60
2019-05-07T13:52:39.422Z,2.20
2019-05-07T13:54:46.242Z,1.63
2019-05-07T13:56:54.142Z,4.00
2019-05-07T13:59:04.980Z,4.70
2019-05-07T14:01:23.082Z,3.73
2019-05-07T14:03:32.910Z,4.53
2019-05-07T14:05:39.800Z,2.00
2019-05-07T14:07:46.449Z,4.23
2019-05-07T14:09:55.008Z,2.23
2019-05-07T14:12:03.909Z,4.97
2019-05-07T14:14:12.141Z,6.13
2019-05-07T14:16:18.301Z,9.20
2019-05-07T14:18:25.796Z,2.23
2019-05-07T14:20:33.138Z,2.67
2019-05-07T14:22:42.456Z,2.23
2019-05-07T14:24:52.890Z,6.27
2019-05-07T14:27:02.007Z,10.87
2019-05-07T14:29:08.722Z,8.47
2019-05-07T14:31:16.888Z,4.30
2019-05-07T14:33:40.589Z,2.63
2019-05-07T14:35:48.885Z,2.53
2019-05-07T14:38:07.022Z,4.40
2019-05-07T14:40:14.382Z,3.10
2019-05-07T14:42:22.690Z,3.17
2019-05-07T14:44:52.636Z,3.40
2019-05-07T14:46:59.022Z,3.60
2019-05-07T14:49:07.102Z,2.60
2019-05-07T14:51:13.682Z,6.60
2019-05-07T14:53:22.234Z,3.17
2019-05-07T14:55:28.314Z,3.87
2019-05-07T14:57:36.242Z,2.60
2019-05-07T14:59:43.452Z,2.67
2019-05-07T15:01:52.089Z,7.40
2019-05-07T15:03:58.662Z,3.40
2019-05-07T15:06:05.202Z,4.27
2019-05-07T15:08:14.296Z,6.20
2019-05-07T15:10:22.200Z,4.07
2019-05-07T15:12:29.882Z,4.60
2019-05-07T15:14:37.242Z,11.27
2019-05-07T15:16:44.222Z,1.80
2019-05-07T15:18:53.071Z,3.40
2019-05-07T15:21:01.891Z,3.53
2019-05-07T15:23:13.363Z,3.43
2019-05-07T15:25:20.198Z,3.23
2019-05-07T15:27:26.842Z,3.60
2019-05-07T15:29:33.482Z,4.60
2019-05-07T15:31:42.365Z,1.67
2019-05-07T15:33:49.444Z,2.40
2019-05-07T15:35:56.322Z,1.80
2019-05-07T15:38:04.622Z,4.50
2019-05-07T15:40:12.576Z,4.50
2019-05-07T15:42:22.292Z,2.93
2019-05-07T15:44:29.582Z,6.07
2019-05-07T15:46:36.270Z,3.33
2019-05-07T15:48:42.786Z,2.70
2019-05-07T15:50:49.330Z,4.03
2019-05-07T15:53:02.170Z,5.90
2019-05-07T15:55:08.910Z,2.53
2019-05-07T15:57:24.550Z,5.57
2019-05-07T15:59:32.587Z,3.67
2019-05-07T16:01:39.304Z,1.80
2019-05-07T16:03:47.843Z,4.03
2019-05-07T16:05:54.542Z,3.83
2019-05-07T16:08:01.723Z,2.33
2019-05-07T16:10:09.603Z,4.40
2019-05-07T16:12:17.762Z,5.33
2019-05-07T16:14:26.741Z,4.63
2019-05-07T16:16:34.830Z,2.60
2019-05-07T16:18:58.900Z,3.07
2019-05-07T16:21:05.363Z,5.27
2019-05-07T16:23:15.724Z,4.67
2019-05-07T16:25:22.345Z,2.33
2019-05-07T16:27:28.882Z,2.90
2019-05-07T16:29:35.950Z,3.33
2019-05-07T16:31:44.161Z,3.57
2019-05-07T16:33:52.124Z,7.70
2019-05-07T16:36:01.974Z,5.33
2019-05-07T16:38:08.122Z,2.73
2019-05-07T16:40:15.684Z,5.47
2019-05-07T16:42:22.410Z,4.23
2019-05-07T16:44:29.463Z,5.07
2019-05-07T16:46:36.199Z,5.17
2019-05-07T16:48:43.958Z,1.97
2019-05-07T16:50:52.299Z,5.33
2019-05-07T16:52:59.291Z,5.23
2019-05-07T16:55:07.843Z,4.67
2019-05-07T16:57:24.583Z,2.90
2019-05-07T16:59:32.339Z,6.13
2019-05-07T17:01:39.663Z,2.83
2019-05-07T17:03:48.185Z,2.20
2019-05-07T17:05:54.730Z,3.93
2019-05-07T17:08:02.479Z,4.73
2019-05-07T17:10:11.719Z,5.93
2019-05-07T17:12:22.035Z,2.60
2019-05-07T17:14:29.403Z,3.40
2019-05-07T17:16:37.526Z,3.90
2019-05-07T17:18:44.202Z,3.63
2019-05-07T17:20:52.267Z,4.23
2019-05-07T17:22:59.303Z,3.53
2019-05-07T17:25:28.282Z,5.23
2019-05-07T17:27:35.890Z,4.70
2019-05-07T17:29:43.013Z,6.60
2019-05-07T17:31:49.903Z,3.73
2019-05-07T17:33:56.639Z,5.03
2019-05-07T17:36:04.651Z,5.60
2019-05-07T17:38:12.945Z,1.93
2019-05-07T17:40:19.806Z,6.50
2019-05-07T17:42:26.842Z,2.47
2019-05-07T17:44:34.982Z,2.53
2019-05-07T17:46:42.907Z,2.80
2019-05-07T17:48:49.822Z,2.63
2019-05-07T17:50:57.982Z,3.50
2019-05-07T17:53:04.983Z,5.00
2019-05-07T17:55:13.052Z,4.10
2019-05-07T17:57:20.091Z,6.37
2019-05-07T17:59:27.130Z,3.73
2019-05-07T18:01:35.582Z,4.53
2019-05-07T18:03:43.365Z,4.30
2019-05-07T18:05:51.833Z,3.43
2019-05-07T18:07:58.502Z,4.77
2019-05-07T18:10:05.595Z,4.40
2019-05-07T18:12:12.929Z,7.27
2019-05-07T18:14:22.818Z,6.73
2019-05-07T18:16:35.370Z,6.27
2019-05-07T18:18:43.245Z,6.50
2019-05-07T18:20:50.229Z,4.03
2019-05-07T18:22:58.603Z,4.57
2019-05-07T18:25:07.569Z,4.43
2019-05-07T18:27:16.057Z,3.57
2019-05-07T18:29:24.862Z,7.20
2019-05-07T18:31:34.709Z,5.47
2019-05-07T18:33:56.529Z,5.20
2019-05-07T18:36:03.662Z,6.53
2019-05-07T18:38:10.462Z,3.37
2019-05-07T18:40:16.970Z,3.63
2019-05-07T18:42:23.642Z,5.17
2019-05-07T18:44:31.582Z,5.70
2019-05-07T18:46:38.523Z,5.73
2019-05-07T18:48:45.104Z,10.47
2019-05-07T18:50:52.261Z,5.67
2019-05-07T18:52:58.969Z,5.17
2019-05-07T18:55:09.034Z,4.70
2019-05-07T18:57:16.008Z,8.40
2019-05-07T18:59:24.625Z,7.53
2019-05-07T19:01:35.291Z,7.47
2019-05-07T19:03:42.288Z,6.47
2019-05-07T19:05:52.020Z,9.03
2019-05-07T19:08:05.371Z,34.93
2019-05-07T19:10:09.055Z,48.30
2019-05-07T19:12:16.675Z,53.17
2019-05-07T19:14:24.175Z,61.63
2019-05-07T19:16:32.513Z,56.83
2019-05-07T19:18:39.501Z,49.53
2019-05-07T19:20:49.701Z,52.93
2019-05-07T19:22:57.037Z,51.47
2019-05-07T19:25:07.130Z,53.83
2019-05-07T19:27:15.546Z,55.23
2019-05-07T19:29:23.577Z,54.17
2019-05-07T19:31:33.967Z,34.93
2019-05-07T19:33:42.050Z,25.37
2019-05-07T19:35:52.779Z,26.87
2019-05-07T19:38:02.931Z,33.70
2019-05-07T19:40:12.537Z,30.10
2019-05-07T19:42:21.161Z,25.07
2019-05-07T19:44:29.730Z,22.50
2019-05-07T19:46:36.708Z,17.97
2019-05-07T19:48:45.615Z,28.03
2019-05-07T19:50:52.879Z,17.43
2019-05-07T19:53:00.025Z,14.20
2019-05-07T19:55:10.503Z,16.43
2019-05-07T19:57:22.995Z,20.87
2019-05-07T19:59:32.544Z,12.87
2019-05-07T20:01:42.643Z,12.67
2019-05-07T20:03:53.223Z,13.80
2019-05-07T20:06:04.463Z,19.07
2019-05-07T20:08:12.730Z,19.13
2019-05-07T20:10:25.356Z,23.83
2019-05-07T20:12:36.712Z,28.83
2019-05-07T20:14:46.680Z,24.43
2019-05-07T20:16:57.140Z,23.93
2019-05-07T20:19:07.194Z,22.70
2019-05-07T20:21:16.943Z,22.37
2019-05-07T20:23:24.006Z,25.40
2019-05-07T20:25:33.324Z,23.23
2019-05-07T20:27:43.458Z,22.30
2019-05-07T20:29:52.232Z,21.87
2019-05-07T20:31:59.806Z,27.23
2019-05-07T20:34:07.965Z,22.77
2019-05-07T20:36:16.650Z,20.70
2019-05-07T20:38:26.730Z,22.33
2019-05-07T20:40:36.145Z,22.27
2019-05-07T20:42:43.306Z,23.83
2019-05-07T20:44:51.972Z,21.90
2019-05-07T20:47:01.690Z,26.23
2019-05-07T20:49:09.487Z,23.97
2019-05-07T20:51:17.035Z,22.00
2019-05-07T20:53:43.495Z,23.30
2019-05-07T20:55:54.135Z,23.90
2019-05-07T20:58:03.465Z,18.00
2019-05-07T21:00:15.253Z,24.57
2019-05-07T21:02:23.158Z,36.40
2019-05-07T21:04:32.840Z,48.63
2019-05-07T21:06:39.958Z,44.93
2019-05-07T21:08:47.085Z,52.87
2019-05-07T21:10:53.957Z,44.30
2019-05-07T21:13:02.027Z,50.70
2019-05-07T21:15:09.225Z,45.50
2019-05-07T21:17:16.079Z,52.30
2019-05-07T21:19:23.716Z,50.53
2019-05-07T21:21:32.549Z,56.10
2019-05-07T21:23:38.974Z,56.03
2019-05-07T21:25:46.220Z,58.80
2019-05-07T21:27:53.200Z,60.20
2019-05-07T21:30:02.330Z,55.20
2019-05-07T21:32:08.267Z,48.83
2019-05-07T21:34:16.410Z,55.30
2019-05-07T21:36:23.293Z,49.03
2019-05-07T21:38:30.025Z,51.70
2019-05-07T21:40:38.287Z,52.20
2019-05-07T21:42:46.611Z,53.70
2019-05-07T21:44:53.483Z,46.17
2019-05-07T21:47:01.737Z,50.90
2019-05-07T21:49:07.959Z,51.80
2019-05-07T21:51:14.526Z,53.40
2019-05-07T21:53:34.402Z,57.57
2019-05-07T21:56:02.524Z,54.17
2019-05-07T21:58:16.789Z,56.83
2019-05-07T22:00:32.681Z,56.57
2019-05-07T22:02:42.339Z,48.93
2019-05-07T22:04:48.890Z,51.67
2019-05-07T22:06:56.388Z,46.53
2019-05-07T22:09:03.566Z,41.33
2019-05-07T22:11:13.403Z,43.57
2019-05-07T22:13:22.015Z,41.90
2019-05-07T22:15:28.085Z,42.67
2019-05-07T22:17:34.547Z,49.83
2019-05-07T22:19:42.666Z,40.67
2019-05-07T22:21:52.169Z,43.23
2019-05-07T22:23:58.346Z,46.97
2019-05-07T22:26:19.214Z,40.43
2019-05-07T22:28:13.452Z,43.90
2019-05-07T22:30:34.116Z,42.57
2019-05-07T22:32:55.569Z,40.10
2019-05-07T22:35:07.439Z,40.97
2019-05-07T22:37:15.850Z,38.40
2019-05-07T22:39:29.814Z,42.13
2019-05-07T22:41:39.585Z,51.17
2019-05-07T22:43:46.845Z,42.40
2019-05-07T22:45:53.522Z,42.83
2019-05-07T22:48:00.162Z,43.17
2019-05-07T22:50:07.662Z,41.13
2019-05-07T22:52:14.107Z,41.63
2019-05-07T22:54:22.556Z,38.77
2019-05-07T22:56:37.323Z,47.93
2019-05-07T22:58:56.541Z,46.07
2019-05-07T23:01:05.275Z,41.00
2019-05-07T23:03:12.483Z,43.90
2019-05-07T23:05:19.332Z,41.60
2019-05-07T23:07:26.502Z,40.57
2019-05-07T23:09:33.065Z,45.83
2019-05-07T23:11:40.872Z,45.30
2019-05-07T23:13:48.942Z,40.23
2019-05-07T23:15:55.651Z,39.80
2019-05-07T23:18:04.092Z,38.27
2019-05-07T23:20:10.223Z,46.40
2019-05-07T23:22:16.998Z,36.77
2019-05-07T23:24:25.916Z,42.97
2019-05-07T23:28:44.176Z,39.63
2019-05-07T23:30:51.940Z,38.00
2019-05-07T23:32:58.331Z,36.00
2019-05-07T23:35:05.113Z,29.50
2019-05-07T23:37:11.841Z,30.33
2019-05-07T23:39:20.085Z,34.90
2019-05-07T23:41:28.082Z,30.43
2019-05-07T23:43:34.643Z,29.13
2019-05-07T23:45:42.078Z,28.30
2019-05-07T23:47:48.502Z,29.20
2019-05-07T23:49:54.944Z,21.17
2019-05-07T23:52:02.416Z,23.33
2019-05-07T23:54:12.154Z,22.37
2019-05-07T23:56:22.045Z,20.53
2019-05-07T23:58:32.661Z,18.53
